Taylor, Louisiana
Current Conditions -  °F | °C
As of 11:14 AM on Friday 31 Oct 2014 (Local Time) from KMNE Reporting Station
Clear Clear  
Wind Chill: 64°   Ceiling: Unl
Heat Index: 64°   Visibility: 10mi
Dew Point: 46°   Wind: 10mph
Humidity: 52%   Direction: 360°N
Pressure: 30.2"   Gusts: 17mph
Location:  32.55°N, 93.12°W
Report Text: KMNE 311614Z AUTO 36009G15KT 10SM CLR 18/08 A3020 RMK AO2
Loading
Personal Weather Stations






























Interactive Weather Map
Tropical Storm Tracking
New forecast layout! Learn more

10-Day Weather Forecast

Advertisements
Track Severe Weather on mobile